createdAt,value
2019-05-29T00:00:42.967Z,971.12
2019-05-29T00:01:42.967Z,971.12
2019-05-29T00:02:42.987Z,971.12
2019-05-29T00:03:42.956Z,971.12
2019-05-29T00:04:42.955Z,971.14
2019-05-29T00:05:42.955Z,971.12
2019-05-29T00:06:42.967Z,971.18
2019-05-29T00:07:42.957Z,971.14
2019-05-29T00:08:42.979Z,971.18
2019-05-29T00:09:42.948Z,971.18
2019-05-29T00:10:42.951Z,971.19
2019-05-29T00:11:42.948Z,971.23
2019-05-29T00:12:42.945Z,971.22
2019-05-29T00:13:42.971Z,971.27
2019-05-29T00:14:42.945Z,971.25
2019-05-29T00:15:42.941Z,971.29
2019-05-29T00:16:42.941Z,971.26
2019-05-29T00:17:42.937Z,971.31
2019-05-29T00:18:42.969Z,971.28
2019-05-29T00:19:42.929Z,971.25
2019-05-29T00:20:42.935Z,971.28
2019-05-29T00:21:42.935Z,971.30
2019-05-29T00:22:42.930Z,971.31
2019-05-29T00:23:42.954Z,971.25
2019-05-29T00:24:42.928Z,971.27
2019-05-29T00:25:42.925Z,971.26
2019-05-29T00:26:42.928Z,971.26
2019-05-29T00:27:42.927Z,971.24
2019-05-29T00:28:42.948Z,971.27
2019-05-29T00:29:42.922Z,971.27
2019-05-29T00:30:42.925Z,971.26
2019-05-29T00:31:42.919Z,971.28
2019-05-29T00:32:42.916Z,971.29
2019-05-29T00:33:42.949Z,971.30
2019-05-29T00:34:42.907Z,971.28
2019-05-29T00:35:42.907Z,971.27
2019-05-29T00:36:42.915Z,971.30
2019-05-29T00:37:42.908Z,971.29
2019-05-29T00:38:42.936Z,971.27
2019-05-29T00:39:42.921Z,971.28
2019-05-29T00:40:42.900Z,971.30
2019-05-29T00:41:42.903Z,971.28
2019-05-29T00:42:42.905Z,971.23
2019-05-29T00:43:42.936Z,971.29
2019-05-29T00:44:42.897Z,971.25
2019-05-29T00:45:42.903Z,971.23
2019-05-29T00:46:42.897Z,971.25
2019-05-29T00:47:42.893Z,971.26
2019-05-29T00:48:42.923Z,971.26
2019-05-29T00:49:42.888Z,971.25
2019-05-29T01:52:28.015Z,971.86
2019-05-29T01:52:48.786Z,971.92
2019-05-29T01:53:48.815Z,971.90
2019-05-29T01:54:48.783Z,971.90
2019-05-29T01:55:48.779Z,971.92
2019-05-29T01:56:48.808Z,971.96
2019-05-29T01:57:48.780Z,971.96
2019-05-29T01:58:48.780Z,971.97
2019-05-29T01:59:48.808Z,972.04
2019-05-29T02:00:48.773Z,972.08
2019-05-29T02:01:48.771Z,972.09
2019-05-29T02:02:48.776Z,972.12
2019-05-29T02:03:48.799Z,972.19
2019-05-29T02:04:48.765Z,972.21
2019-05-29T02:05:48.764Z,972.25
2019-05-29T02:06:48.764Z,972.25
2019-05-29T02:07:48.761Z,972.32
2019-05-29T02:08:48.799Z,972.33
2019-05-29T02:09:48.761Z,972.33
2019-05-29T02:10:48.755Z,972.38
2019-05-29T02:11:48.854Z,972.45
2019-05-29T02:12:48.749Z,972.45
2019-05-29T02:13:48.773Z,972.51
2019-05-29T02:14:48.753Z,972.51
2019-05-29T02:15:48.746Z,972.52
2019-05-29T02:16:48.740Z,972.53
2019-05-29T02:17:48.742Z,972.55
2019-05-29T02:18:48.778Z,972.57
2019-05-29T02:19:48.739Z,972.56
2019-05-29T02:20:48.735Z,972.51
2019-05-29T02:21:48.734Z,972.57
2019-05-29T02:22:48.758Z,972.63
2019-05-29T02:23:48.734Z,972.61
2019-05-29T02:24:48.751Z,972.66
2019-05-29T02:25:48.733Z,972.66
2019-05-29T02:26:48.727Z,972.68
2019-05-29T02:27:48.730Z,972.69
2019-05-29T02:28:48.743Z,972.70
2019-05-29T02:29:48.722Z,972.74
2019-05-29T02:30:48.716Z,972.77
2019-05-29T02:31:48.793Z,972.80
2019-05-29T02:32:48.715Z,972.81
2019-05-29T02:33:48.737Z,972.85
2019-05-29T02:34:48.707Z,972.88
2019-05-29T02:35:48.705Z,972.89
2019-05-29T02:36:48.705Z,972.94
2019-05-29T02:37:48.701Z,972.98
2019-05-29T02:38:48.728Z,972.97
2019-05-29T02:39:48.698Z,973.01
2019-05-29T02:40:48.694Z,973.06
2019-05-29T02:41:48.694Z,973.08
2019-05-29T02:42:48.717Z,973.08
2019-05-29T02:43:48.682Z,973.15
2019-05-29T02:44:48.683Z,973.15
2019-05-29T02:45:54.440Z,973.19
2019-05-29T02:46:48.682Z,973.23
2019-05-29T02:47:48.709Z,973.26
2019-05-29T02:48:48.673Z,973.29
2019-05-29T02:49:48.687Z,973.31
2019-05-29T02:50:48.669Z,973.36
2019-05-29T02:51:48.723Z,973.31
2019-05-29T02:52:48.697Z,973.36
2019-05-29T02:53:48.663Z,973.34
2019-05-29T02:54:48.663Z,973.37
2019-05-29T02:55:48.672Z,973.29
2019-05-29T02:56:48.663Z,973.38
2019-05-29T02:57:48.693Z,973.38
2019-05-29T02:58:48.661Z,973.41
2019-05-29T02:59:48.653Z,973.38
2019-05-29T03:00:48.648Z,973.45
2019-05-29T03:01:48.644Z,973.43
2019-05-29T03:02:48.697Z,973.43
2019-05-29T03:03:48.647Z,973.45
2019-05-29T03:04:48.643Z,973.44
2019-05-29T03:05:48.637Z,973.49
2019-05-29T03:06:48.639Z,973.52
2019-05-29T03:07:48.658Z,973.53
2019-05-29T03:08:48.631Z,973.54
2019-05-29T03:09:48.623Z,973.56
2019-05-29T03:10:48.622Z,973.54
2019-05-29T03:11:48.623Z,973.56
2019-05-29T03:12:48.643Z,973.59
2019-05-29T03:13:48.625Z,973.59
2019-05-29T03:14:48.616Z,973.61
2019-05-29T03:16:05.753Z,973.67
2019-05-29T03:16:48.610Z,973.68
2019-05-29T03:17:48.642Z,973.72
2019-05-29T03:18:48.608Z,973.72
2019-05-29T03:19:48.602Z,973.74
2019-05-29T03:20:48.598Z,973.78
2019-05-29T03:21:48.601Z,973.77
2019-05-29T03:22:48.600Z,973.80
2019-05-29T03:23:48.623Z,973.81
2019-05-29T03:24:48.604Z,973.82
2019-05-29T03:25:48.583Z,973.82
2019-05-29T03:26:48.594Z,973.86
2019-05-29T03:27:48.582Z,973.89
2019-05-29T03:28:48.608Z,973.91
2019-05-29T03:29:48.574Z,973.97
2019-05-29T03:30:48.583Z,973.96
2019-05-29T03:31:49.013Z,973.98
2019-05-29T03:32:49.074Z,974.03
2019-05-29T03:33:50.648Z,974.03
2019-05-29T03:34:48.636Z,973.98
2019-05-29T03:35:48.914Z,974.05
2019-05-29T03:36:49.217Z,974.06
2019-05-29T03:37:48.562Z,974.07
2019-05-29T03:38:48.590Z,974.05
2019-05-29T03:39:48.569Z,974.09
2019-05-29T03:40:48.559Z,974.09
2019-05-29T03:41:48.551Z,974.10
2019-05-29T03:42:48.549Z,974.09
2019-05-29T03:43:48.577Z,974.09
2019-05-29T03:44:48.542Z,974.11
2019-05-29T03:45:48.541Z,974.16
2019-05-29T03:46:48.540Z,974.15
2019-05-29T03:47:48.539Z,974.21
2019-05-29T03:48:48.562Z,974.24
2019-05-29T03:49:48.535Z,974.22
2019-05-29T03:50:48.537Z,974.24
2019-05-29T03:51:48.537Z,974.26
2019-05-29T03:52:48.523Z,974.28
2019-05-29T03:53:48.567Z,974.34
2019-05-29T03:54:48.520Z,974.35
2019-05-29T03:55:48.519Z,974.32
2019-05-29T03:56:48.511Z,974.36
2019-05-29T03:57:48.514Z,974.35
2019-05-29T03:58:48.547Z,974.39
2019-05-29T03:59:48.510Z,974.40
2019-05-29T04:00:49.091Z,974.39
2019-05-29T04:01:48.512Z,974.42
2019-05-29T04:02:48.502Z,974.43
2019-05-29T04:03:48.528Z,974.45
2019-05-29T04:04:48.495Z,974.48
2019-05-29T04:05:48.501Z,974.52
2019-05-29T04:06:48.489Z,974.54
2019-05-29T04:07:48.495Z,974.53
2019-05-29T04:08:48.524Z,974.51
2019-05-29T04:09:48.490Z,974.57
2019-05-29T04:10:48.487Z,974.56
2019-05-29T04:11:48.485Z,974.61
2019-05-29T04:12:48.495Z,974.66
2019-05-29T04:13:48.506Z,974.65
2019-05-29T04:14:48.487Z,974.70
2019-05-29T04:15:48.472Z,974.68
2019-05-29T04:16:58.957Z,974.71
2019-05-29T04:17:48.477Z,974.78
2019-05-29T04:18:48.504Z,974.77
2019-05-29T04:19:48.466Z,974.82
2019-05-29T04:20:48.461Z,974.85
2019-05-29T04:21:48.466Z,974.86
2019-05-29T04:22:48.461Z,974.91
2019-05-29T04:23:48.483Z,974.89
2019-05-29T04:24:48.451Z,974.91
2019-05-29T04:25:48.458Z,974.97
2019-05-29T04:26:48.450Z,974.98
2019-05-29T04:27:48.450Z,975.03
2019-05-29T04:28:48.470Z,975.03
2019-05-29T04:29:48.445Z,975.05
2019-05-29T04:30:48.440Z,975.08
2019-05-29T04:31:48.442Z,975.08
2019-05-29T04:32:48.434Z,975.13
2019-05-29T04:33:48.466Z,975.12
2019-05-29T04:34:48.441Z,975.14
2019-05-29T04:35:48.432Z,975.19
2019-05-29T04:36:48.429Z,975.19
2019-05-29T04:37:48.430Z,975.23
2019-05-29T04:38:48.427Z,975.24
2019-05-29T04:39:48.446Z,975.27
2019-05-29T04:40:48.411Z,975.26
2019-05-29T04:41:48.416Z,975.31
2019-05-29T04:42:48.415Z,975.34
2019-05-29T04:43:48.412Z,975.35
2019-05-29T04:44:48.439Z,975.36
2019-05-29T04:45:48.408Z,975.38
2019-05-29T04:46:48.414Z,975.37
2019-05-29T04:47:48.404Z,975.43
2019-05-29T04:48:48.400Z,975.43
2019-05-29T04:49:48.431Z,975.46
2019-05-29T04:50:48.400Z,975.48
2019-05-29T04:51:48.395Z,975.47
2019-05-29T04:52:48.389Z,975.47
2019-05-29T04:53:48.385Z,975.50
2019-05-29T04:54:48.414Z,975.49
2019-05-29T04:55:48.385Z,975.54
2019-05-29T04:56:48.378Z,975.53
2019-05-29T04:57:50.783Z,975.55
2019-05-29T04:58:48.376Z,975.58
2019-05-29T04:59:48.413Z,975.59
2019-05-29T05:00:58.668Z,975.58
2019-05-29T05:01:48.382Z,975.60
2019-05-29T05:02:48.371Z,975.61
2019-05-29T05:03:48.366Z,975.61
2019-05-29T05:04:48.391Z,975.62
2019-05-29T05:05:48.363Z,975.64
2019-05-29T05:06:48.362Z,975.66
2019-05-29T05:07:48.359Z,975.69
2019-05-29T05:08:48.355Z,975.70
2019-05-29T05:09:48.386Z,975.75
2019-05-29T05:10:48.355Z,975.72
2019-05-29T05:11:48.383Z,975.80
2019-05-29T05:12:48.384Z,975.77
2019-05-29T05:13:48.343Z,975.80
2019-05-29T05:14:48.367Z,975.86
2019-05-29T05:15:48.342Z,975.86
2019-05-29T05:16:48.335Z,975.87
2019-05-29T05:17:48.339Z,975.88
2019-05-29T05:18:48.338Z,975.90
2019-05-29T05:19:48.361Z,975.94
2019-05-29T05:20:48.335Z,975.94
2019-05-29T05:21:48.337Z,975.97
2019-05-29T05:22:48.330Z,975.98
2019-05-29T05:23:48.335Z,976.02
2019-05-29T05:24:48.352Z,976.01
2019-05-29T05:25:48.312Z,976.03
2019-05-29T05:26:48.315Z,976.05
2019-05-29T05:27:48.318Z,976.06
2019-05-29T05:28:48.346Z,976.08
2019-05-29T05:29:48.348Z,976.13
2019-05-29T05:30:48.340Z,976.09
2019-05-29T05:31:48.305Z,976.12
2019-05-29T05:32:48.306Z,976.12
2019-05-29T05:33:48.311Z,976.18
2019-05-29T05:34:48.294Z,976.18
2019-05-29T05:35:48.343Z,976.20
2019-05-29T05:36:48.296Z,976.23
2019-05-29T05:37:48.290Z,976.25
2019-05-29T05:38:48.293Z,976.24
2019-05-29T05:39:48.304Z,976.29
2019-05-29T05:40:48.314Z,976.29
2019-05-29T05:41:48.284Z,976.32
2019-05-29T05:42:48.282Z,976.31
2019-05-29T05:43:48.283Z,976.31
2019-05-29T05:44:48.280Z,976.36
2019-05-29T05:45:48.313Z,976.35
2019-05-29T05:46:48.272Z,976.37
2019-05-29T05:47:56.863Z,976.37
2019-05-29T05:48:48.276Z,976.38
2019-05-29T05:49:48.273Z,976.42
2019-05-29T05:50:48.295Z,976.45
2019-05-29T05:51:48.375Z,976.46
2019-05-29T05:52:48.262Z,976.48
2019-05-29T05:53:48.270Z,976.48
2019-05-29T05:54:48.254Z,976.49
2019-05-29T05:55:48.298Z,976.52
2019-05-29T05:56:48.256Z,976.49
2019-05-29T05:57:48.260Z,976.49
2019-05-29T05:58:48.256Z,976.53
2019-05-29T05:59:48.251Z,976.52
2019-05-29T06:00:48.280Z,976.58
2019-05-29T06:01:48.248Z,976.58
2019-05-29T06:02:51.982Z,976.59
2019-05-29T06:03:48.246Z,976.60
2019-05-29T06:04:48.299Z,976.62
2019-05-29T06:05:48.276Z,976.65
2019-05-29T06:06:48.244Z,976.66
2019-05-29T06:07:48.268Z,976.71
2019-05-29T06:08:48.234Z,976.71
2019-05-29T06:09:48.241Z,976.72
2019-05-29T06:10:51.108Z,976.78
2019-05-29T06:11:48.239Z,976.74
2019-05-29T06:12:48.233Z,976.74
2019-05-29T06:13:48.229Z,976.75
2019-05-29T06:14:48.227Z,976.74
2019-05-29T06:15:48.261Z,976.80
2019-05-29T06:16:48.228Z,976.79
2019-05-29T06:18:10.253Z,976.82
2019-05-29T06:18:48.224Z,976.80
2019-05-29T06:19:48.231Z,976.80
2019-05-29T06:20:48.242Z,976.84
2019-05-29T06:21:48.210Z,976.87
2019-05-29T06:22:48.219Z,976.88
2019-05-29T06:23:48.214Z,976.90
2019-05-29T06:24:48.237Z,976.91
2019-05-29T06:25:48.237Z,976.93
2019-05-29T06:26:48.209Z,976.96
2019-05-29T06:27:48.202Z,976.96
2019-05-29T06:28:48.207Z,976.98
2019-05-29T06:29:48.199Z,977.01
2019-05-29T06:30:48.196Z,977.01
2019-05-29T06:31:48.396Z,976.99
2019-05-29T06:32:48.192Z,977.06
2019-05-29T06:33:48.197Z,977.07
2019-05-29T06:34:48.195Z,977.07
2019-05-29T06:35:48.187Z,977.08
2019-05-29T06:36:48.405Z,977.08
2019-05-29T06:37:48.180Z,977.09
2019-05-29T06:38:48.181Z,977.16
2019-05-29T06:39:48.182Z,977.16
2019-05-29T06:40:48.187Z,977.16
2019-05-29T06:41:48.208Z,977.16
2019-05-29T06:42:48.174Z,977.16
2019-05-29T06:43:48.175Z,977.16
2019-05-29T06:44:49.872Z,977.19
2019-05-29T06:45:48.165Z,977.19
2019-05-29T06:46:48.194Z,977.19
2019-05-29T06:47:48.161Z,977.21
2019-05-29T06:48:58.317Z,977.23
2019-05-29T06:49:48.164Z,977.30
2019-05-29T06:50:48.163Z,977.28
2019-05-29T06:51:48.179Z,977.34
2019-05-29T06:52:48.161Z,977.35
2019-05-29T06:53:48.384Z,977.35
2019-05-29T06:54:48.276Z,977.37
2019-05-29T06:55:54.288Z,977.44
2019-05-29T06:56:48.179Z,977.40
2019-05-29T06:57:48.387Z,977.42
2019-05-29T06:58:48.510Z,977.50
2019-05-29T06:59:48.944Z,977.49
2019-05-29T07:00:48.149Z,977.50
2019-05-29T07:01:48.163Z,977.57
2019-05-29T07:02:48.138Z,977.60
2019-05-29T07:03:48.303Z,977.62
2019-05-29T07:04:48.131Z,977.67
2019-05-29T07:05:51.259Z,977.67
2019-05-29T07:06:48.158Z,977.70
2019-05-29T07:07:48.583Z,977.70
2019-05-29T07:08:50.180Z,977.76
2019-05-29T07:09:48.457Z,977.74
2019-05-29T07:10:48.515Z,977.78
2019-05-29T07:11:48.156Z,977.78
2019-05-29T07:12:48.132Z,977.82
2019-05-29T07:13:50.298Z,977.84
2019-05-29T07:14:48.285Z,977.85
2019-05-29T07:15:48.116Z,977.89
2019-05-29T07:16:55.523Z,977.88
2019-05-29T07:17:48.125Z,977.93
2019-05-29T07:19:23.306Z,977.90
2019-05-29T07:19:59.055Z,977.91
2019-05-29T07:20:48.108Z,977.93
2019-05-29T07:21:48.143Z,977.99
2019-05-29T07:22:48.101Z,977.97
2019-05-29T07:23:48.837Z,977.99
2019-05-29T07:24:48.109Z,978.01
2019-05-29T07:25:48.103Z,977.98
2019-05-29T07:26:48.127Z,978.01
2019-05-29T07:27:48.097Z,978.03
2019-05-29T07:29:06.618Z,978.07
2019-05-29T07:29:48.100Z,978.10
2019-05-29T07:30:57.667Z,978.10
2019-05-29T07:31:48.122Z,978.13
2019-05-29T07:32:56.697Z,978.19
2019-05-29T07:33:48.090Z,978.18
2019-05-29T07:35:02.281Z,978.18
2019-05-29T07:35:48.082Z,978.19
2019-05-29T07:36:48.277Z,978.25
2019-05-29T07:37:48.191Z,978.24
2019-05-29T07:39:02.325Z,978.24
2019-05-29T07:39:48.085Z,978.25
2019-05-29T07:40:49.840Z,978.28
2019-05-29T07:41:48.107Z,978.28
2019-05-29T07:42:55.137Z,978.34
2019-05-29T07:43:48.183Z,978.35
2019-05-29T07:44:48.214Z,978.35
2019-05-29T07:45:48.268Z,978.40
2019-05-29T07:46:48.843Z,978.48
2019-05-29T07:47:48.553Z,978.43
2019-05-29T07:48:50.079Z,978.49
2019-05-29T07:49:49.031Z,978.48
2019-05-29T07:50:48.470Z,978.56
2019-05-29T07:51:48.839Z,978.66
2019-05-29T07:52:49.192Z,978.68
2019-05-29T07:53:48.768Z,978.61
2019-05-29T07:54:48.205Z,978.63
2019-05-29T07:55:48.984Z,978.73
2019-05-29T07:56:48.661Z,978.68
2019-05-29T07:57:48.976Z,978.76
2019-05-29T07:59:01.036Z,978.95
2019-05-29T07:59:48.845Z,979.03
2019-05-29T08:01:09.690Z,978.86
2019-05-29T08:01:49.182Z,979.03
2019-05-29T08:02:49.392Z,978.96
2019-05-29T08:03:49.510Z,978.91
2019-05-29T08:04:49.707Z,978.94
2019-05-29T08:05:51.518Z,978.70
2019-05-29T08:06:52.677Z,978.77
2019-05-29T08:07:49.575Z,978.76
2019-05-29T08:08:49.426Z,978.82
2019-05-29T08:09:48.098Z,978.90
2019-05-29T08:10:48.101Z,979.01
2019-05-29T08:11:48.105Z,979.01
2019-05-29T08:12:53.155Z,979.16
2019-05-29T08:13:48.106Z,978.95
2019-05-29T08:14:48.106Z,979.05
2019-05-29T08:16:00.958Z,979.24
2019-05-29T08:16:48.178Z,979.09
2019-05-29T08:17:48.271Z,979.18
2019-05-29T08:18:49.685Z,979.28
2019-05-29T08:20:05.394Z,979.05
2019-05-29T08:20:48.195Z,979.03
2019-05-29T08:21:48.502Z,979.28
2019-05-29T08:22:48.551Z,979.15
2019-05-29T08:23:48.571Z,979.09
2019-05-29T08:24:49.370Z,979.12
2019-05-29T08:25:48.135Z,979.06
2019-05-29T08:26:48.920Z,979.10
2019-05-29T08:27:48.905Z,979.26
2019-05-29T08:28:48.953Z,979.26
2019-05-29T08:29:48.813Z,979.28
2019-05-29T08:30:52.509Z,979.66
2019-05-29T08:31:48.964Z,979.50
2019-05-29T08:32:49.210Z,979.34
2019-05-29T08:33:48.967Z,979.47
2019-05-29T08:34:49.083Z,979.59
2019-05-29T08:35:55.688Z,979.63
2019-05-29T08:37:00.841Z,979.53
2019-05-29T08:37:49.159Z,979.68
2019-05-29T08:38:49.079Z,979.71
2019-05-29T08:39:49.455Z,979.59
2019-05-29T08:40:49.426Z,979.33
2019-05-29T08:42:20.661Z,979.65
2019-05-29T08:42:49.312Z,979.44
2019-05-29T08:43:48.424Z,979.91
2019-05-29T08:44:48.195Z,980.04
2019-05-29T08:45:48.205Z,979.94
2019-05-29T08:47:06.349Z,980.04
2019-05-29T08:47:48.209Z,979.82
2019-05-29T08:48:48.289Z,979.70
2019-05-29T08:49:51.048Z,980.00
2019-05-29T08:50:48.222Z,979.79
2019-05-29T08:51:48.225Z,979.86
2019-05-29T08:52:48.229Z,979.86
2019-05-29T08:53:48.766Z,980.05
2019-05-29T08:54:48.241Z,980.12
2019-05-29T08:55:48.690Z,980.17
2019-05-29T08:56:48.414Z,980.26
2019-05-29T08:57:48.460Z,980.16
2019-05-29T08:58:48.456Z,980.17
2019-05-29T08:59:48.441Z,980.23
2019-05-29T09:00:51.978Z,980.06
2019-05-29T09:01:50.450Z,980.05
2019-05-29T09:02:49.283Z,980.15
2019-05-29T09:03:48.875Z,980.20
2019-05-29T09:04:49.804Z,980.13
2019-05-29T09:06:06.099Z,980.11
2019-05-29T09:06:49.190Z,980.35
2019-05-29T09:07:49.787Z,980.35
2019-05-29T09:08:49.909Z,980.27
2019-05-29T09:09:49.112Z,980.21
2019-05-29T09:10:49.400Z,980.21
2019-05-29T09:11:50.142Z,980.27
2019-05-29T09:12:57.075Z,980.26
2019-05-29T09:13:48.361Z,980.31
2019-05-29T09:14:48.396Z,980.30
2019-05-29T09:15:48.354Z,980.40
2019-05-29T09:16:48.337Z,980.35
2019-05-29T09:17:48.345Z,980.31
2019-05-29T09:18:48.390Z,980.36
2019-05-29T09:19:48.398Z,980.33
2019-05-29T09:21:01.185Z,980.36
2019-05-29T09:21:48.400Z,980.37
2019-05-29T09:22:48.368Z,980.38
2019-05-29T09:23:48.399Z,980.40
2019-05-29T09:24:48.377Z,980.47
2019-05-29T09:25:48.379Z,980.45
2019-05-29T09:26:48.389Z,980.47
2019-05-29T09:27:48.403Z,980.42
2019-05-29T09:28:48.423Z,980.41
2019-05-29T09:29:50.281Z,980.43
2019-05-29T09:30:48.559Z,980.40
2019-05-29T09:31:48.412Z,980.45
2019-05-29T09:32:51.946Z,980.43
2019-05-29T09:33:48.453Z,980.42
2019-05-29T09:34:48.419Z,980.40
2019-05-29T09:35:48.444Z,980.33
2019-05-29T09:36:48.577Z,980.35
2019-05-29T09:37:48.428Z,980.45
2019-05-29T09:38:48.511Z,980.46
2019-05-29T09:39:48.434Z,980.24
2019-05-29T09:40:48.439Z,980.39
2019-05-29T09:41:50.859Z,980.39
2019-05-29T09:42:49.415Z,980.46
2019-05-29T09:43:59.362Z,980.45
2019-05-29T09:44:50.887Z,980.38
2019-05-29T09:45:53.334Z,980.34
2019-05-29T09:46:52.848Z,980.15
2019-05-29T09:47:49.591Z,980.34
2019-05-29T09:48:50.107Z,980.26
2019-05-29T09:49:55.783Z,980.37
2019-05-29T09:50:50.829Z,980.37
2019-05-29T09:51:49.857Z,980.35
2019-05-29T09:52:50.882Z,980.52
2019-05-29T09:53:59.907Z,980.55
2019-05-29T09:54:49.318Z,980.54
2019-05-29T09:55:49.896Z,980.62
2019-05-29T09:56:49.174Z,980.69
2019-05-29T09:57:50.408Z,980.77
2019-05-29T09:58:53.615Z,980.81
2019-05-29T09:59:49.605Z,980.84
2019-05-29T10:01:07.289Z,980.87
2019-05-29T10:01:49.923Z,980.93
2019-05-29T10:02:50.436Z,980.95
2019-05-29T10:03:49.876Z,980.94
2019-05-29T10:04:49.340Z,980.93
2019-05-29T10:05:51.308Z,980.96
2019-05-29T10:06:51.337Z,980.96
2019-05-29T10:07:49.808Z,980.97
2019-05-29T10:08:51.274Z,980.96
2019-05-29T10:09:50.334Z,980.94
2019-05-29T10:10:50.349Z,980.85
2019-05-29T10:11:51.400Z,980.85
2019-05-29T10:12:51.400Z,980.84
2019-05-29T10:13:50.360Z,980.84
2019-05-29T10:14:53.642Z,980.88
2019-05-29T10:15:51.371Z,980.86
2019-05-29T10:16:50.437Z,980.88
2019-05-29T10:17:50.360Z,980.83
2019-05-29T10:18:49.348Z,980.81
2019-05-29T10:19:52.355Z,980.82
2019-05-29T10:20:52.358Z,980.85
2019-05-29T10:21:51.790Z,980.83
2019-05-29T10:22:49.368Z,980.81
2019-05-29T10:23:49.134Z,980.85
2019-05-29T10:24:49.816Z,980.83
2019-05-29T10:25:50.356Z,980.81
2019-05-29T10:26:49.829Z,980.85
2019-05-29T10:27:50.832Z,980.83
2019-05-29T10:29:51.706Z,980.90
2019-05-29T10:30:50.174Z,980.93
2019-05-29T10:31:51.379Z,980.96
2019-05-29T10:32:50.125Z,980.97
2019-05-29T10:33:52.321Z,980.99
2019-05-29T10:34:50.839Z,980.97
2019-05-29T10:35:53.515Z,980.99
2019-05-29T10:36:52.905Z,980.97
2019-05-29T10:37:50.734Z,980.99
2019-05-29T10:38:50.597Z,981.02
2019-05-29T10:39:49.346Z,981.04
2019-05-29T10:41:00.456Z,981.04
2019-05-29T10:41:51.335Z,981.02
2019-05-29T10:42:49.112Z,980.99
2019-05-29T10:43:53.260Z,980.97
2019-05-29T10:44:53.246Z,980.94
2019-05-29T10:45:51.944Z,980.94
2019-05-29T10:46:52.028Z,980.95
2019-05-29T10:47:49.928Z,980.93
2019-05-29T10:48:55.934Z,980.96
2019-05-29T10:49:49.765Z,981.09
2019-05-29T10:50:52.173Z,981.14
2019-05-29T10:52:05.752Z,981.15
2019-05-29T10:52:52.303Z,981.17
2019-05-29T10:53:52.268Z,981.21
2019-05-29T10:54:52.442Z,981.21
2019-05-29T10:55:52.596Z,981.23
2019-05-29T10:56:50.700Z,981.14
2019-05-29T10:57:50.734Z,981.08
2019-05-29T10:58:56.165Z,981.07
2019-05-29T10:59:50.841Z,981.05
2019-05-29T11:00:53.249Z,981.15
2019-05-29T11:01:49.245Z,981.21
2019-05-29T11:02:50.153Z,981.20
2019-05-29T11:03:49.365Z,981.08
2019-05-29T11:04:53.247Z,981.09
2019-05-29T11:05:49.792Z,981.12
2019-05-29T11:06:50.274Z,981.01
2019-05-29T11:07:49.724Z,981.13
2019-05-29T11:08:50.223Z,981.19
2019-05-29T11:09:56.135Z,981.11
2019-05-29T11:10:49.945Z,981.19
2019-05-29T11:11:53.277Z,981.08
2019-05-29T11:12:50.691Z,980.99
2019-05-29T11:13:50.554Z,981.22
2019-05-29T11:14:50.727Z,981.12
2019-05-29T11:15:50.833Z,981.17
2019-05-29T11:16:53.413Z,981.19
2019-05-29T11:17:49.601Z,981.16
2019-05-29T11:18:51.228Z,981.25
2019-05-29T11:19:49.868Z,981.17
2019-05-29T11:20:49.454Z,981.04
2019-05-29T11:21:51.877Z,980.98
2019-05-29T11:22:51.658Z,980.89
2019-05-29T11:23:51.844Z,981.02
2019-05-29T11:24:54.439Z,981.17
2019-05-29T11:25:52.087Z,981.20
2019-05-29T11:26:54.588Z,981.20
2019-05-29T11:27:50.923Z,981.21
2019-05-29T11:28:50.404Z,981.16
2019-05-29T11:29:55.128Z,981.20
2019-05-29T11:30:53.284Z,981.19
2019-05-29T11:31:53.320Z,981.05
2019-05-29T11:32:52.702Z,981.08
2019-05-29T11:33:52.895Z,981.22
2019-05-29T11:34:53.773Z,981.25
2019-05-29T11:36:03.319Z,981.26
2019-05-29T11:36:50.363Z,981.24
2019-05-29T11:37:50.421Z,981.25
2019-05-29T11:38:52.835Z,981.26
2019-05-29T11:39:50.374Z,981.27
2019-05-29T11:41:05.376Z,981.31
2019-05-29T11:41:50.617Z,981.28
2019-05-29T11:42:52.653Z,981.24
2019-05-29T11:43:50.642Z,981.31
2019-05-29T11:44:50.933Z,981.27
2019-05-29T11:45:51.177Z,981.29
2019-05-29T11:46:50.317Z,981.28
2019-05-29T11:47:54.001Z,981.30
2019-05-29T11:48:53.072Z,981.29
2019-05-29T11:49:49.533Z,981.32
2019-05-29T11:50:52.120Z,981.33
2019-05-29T11:51:51.599Z,981.31
2019-05-29T11:52:50.329Z,981.25
2019-05-29T11:53:51.528Z,981.09
2019-05-29T11:54:56.132Z,981.35
2019-05-29T11:55:52.394Z,981.35
2019-05-29T11:56:53.531Z,981.32
2019-05-29T11:57:51.714Z,981.33
2019-05-29T11:58:52.898Z,981.27
2019-05-29T11:59:51.738Z,981.28
2019-05-29T12:01:01.265Z,981.32
2019-05-29T12:01:52.546Z,981.28
2019-05-29T12:02:51.273Z,981.12
2019-05-29T12:04:13.559Z,981.06
2019-05-29T12:04:52.990Z,981.23
2019-05-29T12:05:51.154Z,981.23
2019-05-29T12:06:53.198Z,981.04
2019-05-29T12:07:51.580Z,981.20
2019-05-29T12:08:53.641Z,981.21
2019-05-29T12:09:51.361Z,981.11
2019-05-29T12:10:49.826Z,981.15
2019-05-29T12:11:51.883Z,980.92
2019-05-29T12:12:51.322Z,980.98
2019-05-29T12:13:51.644Z,981.18
2019-05-29T12:15:00.366Z,981.14
2019-05-29T12:15:51.561Z,981.27
2019-05-29T12:16:51.728Z,981.03
2019-05-29T12:17:49.848Z,981.07
2019-05-29T12:18:51.497Z,981.00
2019-05-29T12:19:51.795Z,981.18
2019-05-29T12:20:52.360Z,981.23
2019-05-29T12:21:52.237Z,981.27
2019-05-29T12:23:13.230Z,981.24
2019-05-29T12:23:52.362Z,981.20
2019-05-29T12:24:54.496Z,981.21
2019-05-29T12:25:59.887Z,981.29
2019-05-29T12:26:54.467Z,981.32
2019-05-29T12:27:55.257Z,981.13
2019-05-29T12:28:53.459Z,981.13
2019-05-29T12:29:50.842Z,981.09
2019-05-29T12:30:50.417Z,981.08
2019-05-29T12:31:52.832Z,981.04
2019-05-29T12:32:52.640Z,981.08
2019-05-29T12:33:52.793Z,981.08
2019-05-29T12:34:55.709Z,981.08
2019-05-29T12:35:50.925Z,981.12
2019-05-29T12:36:50.860Z,981.29
2019-05-29T12:37:51.404Z,981.29
2019-05-29T12:38:53.520Z,981.34
2019-05-29T12:39:53.186Z,981.33
2019-05-29T12:40:53.321Z,981.23
2019-05-29T12:41:53.205Z,981.26
2019-05-29T12:42:53.411Z,981.31
2019-05-29T12:43:50.149Z,981.35
2019-05-29T12:44:57.614Z,981.30
2019-05-29T12:45:51.181Z,981.32
2019-05-29T12:46:53.475Z,981.37
2019-05-29T12:47:53.815Z,981.34
2019-05-29T12:48:51.857Z,981.35
2019-05-29T12:49:53.698Z,981.36
2019-05-29T12:50:51.855Z,981.30
2019-05-29T12:51:51.875Z,981.24
2019-05-29T12:52:51.907Z,981.23
2019-05-29T12:53:51.917Z,981.15
2019-05-29T12:54:53.855Z,981.03
2019-05-29T12:55:58.496Z,981.06
2019-05-29T12:56:51.514Z,981.06
2019-05-29T12:57:51.916Z,981.00
2019-05-29T12:58:54.063Z,981.00
2019-05-29T12:59:55.863Z,980.97
2019-05-29T13:00:51.954Z,981.26
2019-05-29T13:01:51.145Z,981.06
2019-05-29T13:02:51.883Z,981.26
2019-05-29T13:03:51.343Z,981.22
2019-05-29T13:05:06.946Z,981.15
2019-05-29T13:05:51.993Z,981.17
2019-05-29T13:06:56.228Z,981.01
2019-05-29T13:07:50.526Z,981.20
2019-05-29T13:08:52.474Z,981.16
2019-05-29T13:09:51.483Z,981.17
2019-05-29T13:10:54.229Z,981.16
2019-05-29T13:11:52.456Z,981.20
2019-05-29T13:12:51.915Z,981.24
2019-05-29T13:13:52.388Z,981.28
2019-05-29T13:14:51.839Z,981.25
2019-05-29T13:15:51.903Z,981.29
2019-05-29T13:16:54.649Z,981.21
2019-05-29T13:17:55.563Z,981.19
2019-05-29T13:18:54.837Z,981.23
2019-05-29T13:19:57.607Z,981.27
2019-05-29T13:20:51.408Z,981.36
2019-05-29T13:21:51.431Z,981.30
2019-05-29T13:22:51.572Z,981.38
2019-05-29T13:23:52.403Z,981.16
2019-05-29T13:25:01.236Z,981.02
2019-05-29T13:25:51.047Z,981.11
2019-05-29T13:26:50.939Z,981.12
2019-05-29T13:27:53.469Z,981.03
2019-05-29T13:28:53.392Z,981.04
2019-05-29T13:29:56.476Z,981.02
2019-05-29T13:30:53.973Z,981.07